Time;durP1;ratioP1;P1;durP2;ratioP2;P2;SDS_P1;SDS_P2;PMS_P1;PMS_P2;Temp;Humidity;BMP_temperature;BMP_pressure;BME280_temperature;BME280_humidity;BME280_pressure;Samples;Min_cycle;Max_cycle;Signal;HPM_P1;HPM_P2
2022/07/17 00:00:24;;;;;;;4.43;3.97;;;;;;;;;;10390197;28;20063;-82
2022/07/17 00:05:25;;;;;;;3.97;3.67;;;;;;;;;;10376166;28;20407;-81
2022/07/17 00:10:28;;;;;;;4.00;3.70;;;;;;;;;;10388255;28;20022;-87
2022/07/17 00:15:38;;;;;;;;;;;;;;;;;;10373294;28;20049;-82
2022/07/17 00:20:39;;;;;;;4.40;4.00;;;;;;;;;;10342691;28;19924;-83
2022/07/17 00:25:41;;;;;;;4.50;4.10;;;;;;;;;;10379064;28;20053;-84
2022/07/17 00:30:41;;;;;;;4.47;4.10;;;;;;;;;;10339212;28;20042;-82
2022/07/17 00:35:42;;;;;;;7.13;4.30;;;;;;;;;;10366500;28;20125;-82
2022/07/17 00:40:42;;;;;;;5.20;4.53;;;;;;;;;;10397387;28;20061;-83
2022/07/17 00:45:43;;;;;;;4.40;4.00;;;;;;;;;;10405114;28;20061;-82
2022/07/17 00:50:44;;;;;;;4.60;4.20;;;;;;;;;;10372875;28;20069;-85
2022/07/17 00:55:47;;;;;;;5.03;4.53;;;;;;;;;;10424568;28;20152;-83
2022/07/17 01:00:49;;;;;;;6.05;4.97;;;;;;;;;;10396166;28;20292;-83
2022/07/17 01:05:50;;;;;;;5.20;4.17;;;;;;;;;;10409791;28;20069;-84
2022/07/17 01:10:53;;;;;;;4.47;4.00;;;;;;;;;;10415891;28;20033;-83
2022/07/17 01:15:54;;;;;;;4.80;4.28;;;;;;;;;;10406067;28;20041;-83
2022/07/17 01:20:55;;;;;;;4.68;4.20;;;;;;;;;;10384376;28;20046;-85
2022/07/17 01:25:57;;;;;;;5.28;4.18;;;;;;;;;;10389609;28;20044;-83
2022/07/17 01:31:03;;;;;;;4.72;4.28;;;;;;;;;;10405180;28;20038;-82
2022/07/17 01:36:23;;;;;;;4.75;4.35;;;;;;;;;;10405938;28;20037;-85
2022/07/17 01:41:23;;;;;;;4.22;3.80;;;;;;;;;;10383866;28;20180;-82
2022/07/17 01:46:32;;;;;;;4.25;3.83;;;;;;;;;;10391723;28;20046;-83
2022/07/17 01:51:36;;;;;;;6.88;3.95;;;;;;;;;;10397571;28;20030;-81
2022/07/17 01:56:38;;;;;;;4.43;4.03;;;;;;;;;;10398925;28;20469;-81
2022/07/17 02:01:43;;;;;;;4.75;3.40;;;;;;;;;;10399661;28;20080;-84
2022/07/17 02:06:45;;;;;;;4.22;3.83;;;;;;;;;;10407984;28;20045;-83
2022/07/17 02:11:46;;;;;;;4.40;4.00;;;;;;;;;;10381278;28;20042;-83
2022/07/17 02:16:46;;;;;;;4.30;3.90;;;;;;;;;;10375102;28;20092;-82
2022/07/17 02:21:48;;;;;;;3.83;3.42;;;;;;;;;;10384944;28;20058;-82
2022/07/17 02:26:48;;;;;;;4.32;3.90;;;;;;;;;;10373444;28;20080;-82
2022/07/17 02:31:50;;;;;;;4.40;4.00;;;;;;;;;;10385350;28;20044;-81
2022/07/17 02:36:50;;;;;;;3.90;3.55;;;;;;;;;;10373310;28;20081;-82
2022/07/17 02:41:50;;;;;;;4.30;3.90;;;;;;;;;;10375126;28;20077;-82
2022/07/17 02:46:51;;;;;;;6.70;4.50;;;;;;;;;;10368227;28;21079;-82
2022/07/17 02:51:58;;;;;;;4.07;3.67;;;;;;;;;;10369559;28;20046;-81
2022/07/17 02:57:00;;;;;;;4.32;3.85;;;;;;;;;;10367536;28;20136;-82
2022/07/17 03:02:00;;;;;;;5.40;3.80;;;;;;;;;;10389999;28;20125;-82
2022/07/17 03:13:11;;;;;;;4.25;3.28;;;;;;;;;;10361188;28;20053;-82
2022/07/17 03:18:12;;;;;;;3.72;3.42;;;;;;;;;;10361717;28;20748;-81
2022/07/17 03:23:14;;;;;;;3.70;3.40;;;;;;;;;;10343191;28;20524;-82
2022/07/17 03:28:17;;;;;;;4.85;3.67;;;;;;;;;;10386313;28;20022;-83
2022/07/17 03:33:20;;;;;;;3.70;3.40;;;;;;;;;;10410204;28;20041;-83
2022/07/17 03:38:24;;;;;;;5.93;3.70;;;;;;;;;;10369553;28;20140;-81
2022/07/17 03:43:26;;;;;;;4.85;3.08;;;;;;;;;;10373862;28;20289;-83
2022/07/17 03:48:28;;;;;;;3.97;3.55;;;;;;;;;;10403992;28;20037;-82
2022/07/17 03:53:30;;;;;;;3.80;3.50;;;;;;;;;;10393205;28;20042;-82
2022/07/17 03:58:31;;;;;;;4.03;3.63;;;;;;;;;;10398228;28;20038;-84
2022/07/17 04:03:33;;;;;;;5.97;4.03;;;;;;;;;;10409997;28;20064;-83
2022/07/17 04:08:35;;;;;;;4.00;3.70;;;;;;;;;;10408720;28;20091;-81
2022/07/17 04:13:35;;;;;;;4.00;3.60;;;;;;;;;;10415795;28;20029;-84
2022/07/17 04:18:36;;;;;;;4.45;3.58;;;;;;;;;;10418425;28;20064;-82
2022/07/17 04:23:37;;;;;;;4.63;3.60;;;;;;;;;;10386478;28;20095;-82
2022/07/17 04:28:38;;;;;;;4.43;3.63;;;;;;;;;;10389888;28;20119;-83
2022/07/17 04:33:40;;;;;;;4.15;3.65;;;;;;;;;;10377865;28;20056;-82
2022/07/17 04:38:42;;;;;;;3.53;3.10;;;;;;;;;;10360216;28;20453;-83
2022/07/17 04:43:42;;;;;;;3.72;3.42;;;;;;;;;;10407291;28;20033;-82
2022/07/17 04:48:43;;;;;;;3.85;3.10;;;;;;;;;;10398812;28;20049;-80
2022/07/17 04:53:44;;;;;;;4.20;3.35;;;;;;;;;;10362368;28;20046;-81
2022/07/17 04:58:45;;;;;;;3.28;2.83;;;;;;;;;;10387145;28;20061;-81
2022/07/17 05:03:46;;;;;;;5.93;2.95;;;;;;;;;;10400249;28;20054;-81
2022/07/17 05:08:47;;;;;;;4.35;2.88;;;;;;;;;;10408813;28;20030;-83
2022/07/17 05:13:51;;;;;;;6.50;2.90;;;;;;;;;;10367973;28;20347;-83
2022/07/17 05:18:52;;;;;;;3.17;2.70;;;;;;;;;;10392341;28;20124;-76
2022/07/17 05:23:52;;;;;;;3.83;2.83;;;;;;;;;;10377864;28;20049;-82
2022/07/17 05:28:53;;;;;;;3.20;2.33;;;;;;;;;;10370778;28;20083;-79
2022/07/17 05:33:53;;;;;;;3.33;2.53;;;;;;;;;;10384618;28;20128;-78
2022/07/17 05:38:54;;;;;;;2.57;2.37;;;;;;;;;;10364361;28;20111;-77
2022/07/17 05:43:54;;;;;;;3.65;2.25;;;;;;;;;;10363853;28;20053;-77
2022/07/17 05:48:54;;;;;;;5.30;2.60;;;;;;;;;;10366890;28;20045;-81
2022/07/17 05:53:55;;;;;;;3.40;2.23;;;;;;;;;;10367049;28;20285;-79
2022/07/17 05:58:55;;;;;;;2.70;2.13;;;;;;;;;;10363294;28;20729;-75
2022/07/17 06:03:55;;;;;;;2.58;2.00;;;;;;;;;;10361224;28;20042;-75
2022/07/17 06:08:56;;;;;;;3.07;2.03;;;;;;;;;;10361356;28;20039;-76
2022/07/17 06:13:56;;;;;;;3.63;2.00;;;;;;;;;;10392095;28;20056;-84
2022/07/17 06:18:57;;;;;;;4.18;2.17;;;;;;;;;;10393304;28;20068;-86
2022/07/17 06:23:59;;;;;;;5.32;2.40;;;;;;;;;;10401201;28;20045;-87
2022/07/17 06:29:02;;;;;;;3.58;1.88;;;;;;;;;;10386255;28;20112;-88
2022/07/17 06:34:26;;;;;;;5.25;1.90;;;;;;;;;;10378721;28;20096;-86
2022/07/17 06:39:28;;;;;;;4.85;1.85;;;;;;;;;;10333416;28;20407;-83
2022/07/17 06:44:28;;;;;;;3.28;1.63;;;;;;;;;;10366583;28;20053;-81
2022/07/17 06:49:29;;;;;;;2.38;1.73;;;;;;;;;;10389034;28;20500;-82
2022/07/17 06:54:30;;;;;;;2.37;1.60;;;;;;;;;;10400645;28;20124;-83
2022/07/17 06:59:30;;;;;;;3.28;1.60;;;;;;;;;;10393956;28;20287;-82
2022/07/17 07:04:34;;;;;;;5.43;1.70;;;;;;;;;;10398478;28;20062;-84
2022/07/17 07:09:35;;;;;;;2.63;1.63;;;;;;;;;;10394142;28;20048;-82
2022/07/17 07:14:37;;;;;;;3.47;1.52;;;;;;;;;;10397566;28;20041;-81
2022/07/17 07:19:38;;;;;;;3.00;1.65;;;;;;;;;;10372209;28;20077;-81
2022/07/17 07:24:40;;;;;;;3.50;1.52;;;;;;;;;;10394273;28;20142;-81
2022/07/17 07:29:41;;;;;;;3.47;1.43;;;;;;;;;;10392103;28;20037;-81
2022/07/17 07:34:42;;;;;;;4.73;1.60;;;;;;;;;;10355407;28;20349;-82
2022/07/17 07:39:43;;;;;;;3.43;1.50;;;;;;;;;;10405118;28;20281;-81
2022/07/17 07:44:44;;;;;;;3.13;1.50;;;;;;;;;;10391072;28;20663;-82
2022/07/17 07:49:45;;;;;;;3.15;1.88;;;;;;;;;;10390953;28;20049;-84
2022/07/17 07:54:47;;;;;;;3.40;1.70;;;;;;;;;;10381066;28;20041;-85
2022/07/17 07:59:58;;;;;;;3.55;1.80;;;;;;;;;;10350992;28;20056;-84
2022/07/17 08:05:28;;;;;;;2.63;1.50;;;;;;;;;;10342026;28;20053;-84
2022/07/17 08:10:40;;;;;;;3.55;1.50;;;;;;;;;;10358413;28;20049;-84
2022/07/17 08:16:13;;;;;;;3.92;1.70;;;;;;;;;;10401133;28;20611;-83
2022/07/17 08:21:17;;;;;;;4.03;2.05;;;;;;;;;;10408200;28;20058;-83
2022/07/17 08:26:18;;;;;;;2.10;1.38;;;;;;;;;;10396434;28;20046;-82
2022/07/17 08:31:20;;;;;;;2.80;1.20;;;;;;;;;;10404712;28;20045;-76
2022/07/17 08:36:21;;;;;;;2.27;1.33;;;;;;;;;;10363176;28;20281;-78
2022/07/17 08:41:23;;;;;;;2.60;1.60;;;;;;;;;;10351438;28;20395;-80
2022/07/17 08:46:25;;;;;;;5.03;1.83;;;;;;;;;;10382429;28;20145;-78
2022/07/17 08:51:26;;;;;;;2.07;1.40;;;;;;;;;;10363456;28;20050;-79
2022/07/17 08:56:27;;;;;;;2.63;1.08;;;;;;;;;;10361695;28;20070;-77
2022/07/17 09:01:27;;;;;;;3.17;1.25;;;;;;;;;;10352951;28;20062;-79
2022/07/17 09:06:28;;;;;;;3.03;1.50;;;;;;;;;;10368137;28;20070;-77
2022/07/17 09:11:29;;;;;;;2.60;1.40;;;;;;;;;;10363813;28;20685;-78
2022/07/17 09:16:29;;;;;;;3.33;1.37;;;;;;;;;;10339218;28;20132;-77
2022/07/17 09:21:31;;;;;;;2.72;1.20;;;;;;;;;;10361650;28;20053;-77
2022/07/17 09:26:37;;;;;;;2.38;1.10;;;;;;;;;;10365735;28;20052;-79
2022/07/17 09:31:37;;;;;;;3.30;1.17;;;;;;;;;;10363977;28;20046;-78
2022/07/17 09:36:37;;;;;;;2.42;1.30;;;;;;;;;;10363497;28;20428;-78
2022/07/17 09:41:38;;;;;;;3.67;1.47;;;;;;;;;;10360472;28;20058;-77
2022/07/17 09:46:39;;;;;;;2.35;1.38;;;;;;;;;;10365159;28;20833;-77
2022/07/17 09:51:39;;;;;;;3.30;1.20;;;;;;;;;;10364967;28;20046;-78
2022/07/17 09:56:40;;;;;;;1.65;1.20;;;;;;;;;;10369558;28;20629;-78
2022/07/17 10:01:43;;;;;;;2.97;1.67;;;;;;;;;;10368168;28;20088;-79
2022/07/17 10:06:44;;;;;;;3.10;1.52;;;;;;;;;;10365035;28;20176;-78
2022/07/17 10:11:44;;;;;;;3.88;1.20;;;;;;;;;;10339227;28;20899;-78
2022/07/17 10:16:45;;;;;;;2.95;1.33;;;;;;;;;;10348684;28;20050;-78
2022/07/17 10:21:53;;;;;;;3.13;1.20;;;;;;;;;;10346019;28;20080;-77
2022/07/17 10:26:54;;;;;;;2.85;1.30;;;;;;;;;;10354454;28;20041;-77
2022/07/17 10:31:55;;;;;;;4.28;1.60;;;;;;;;;;10362230;28;20053;-77
2022/07/17 10:36:56;;;;;;;4.40;1.40;;;;;;;;;;10361583;28;20041;-79
2022/07/17 10:41:58;;;;;;;2.03;1.20;;;;;;;;;;10364629;28;20602;-79
2022/07/17 10:46:58;;;;;;;2.85;1.27;;;;;;;;;;10376682;28;20139;-79
2022/07/17 10:51:59;;;;;;;3.00;1.40;;;;;;;;;;10369239;28;20221;-78
2022/07/17 10:57:00;;;;;;;2.33;1.33;;;;;;;;;;10366847;28;20090;-77
2022/07/17 11:02:01;;;;;;;2.60;1.63;;;;;;;;;;10364693;28;20058;-78
2022/07/17 11:07:05;;;;;;;2.88;1.20;;;;;;;;;;10363691;28;20057;-78
2022/07/17 11:12:06;;;;;;;2.25;1.98;;;;;;;;;;10378033;28;20116;-79
2022/07/17 11:17:07;;;;;;;3.40;1.20;;;;;;;;;;10361580;28;20181;-76
2022/07/17 11:22:10;;;;;;;1.97;1.40;;;;;;;;;;10363888;28;20054;-74
2022/07/17 11:27:11;;;;;;;2.33;1.17;;;;;;;;;;10373362;28;20077;-74
2022/07/17 11:32:12;;;;;;;2.60;1.42;;;;;;;;;;10370617;28;20482;-76
2022/07/17 11:37:12;;;;;;;2.97;1.33;;;;;;;;;;10371214;28;20069;-80
2022/07/17 11:42:17;;;;;;;1.73;1.10;;;;;;;;;;10380651;28;20108;-81
2022/07/17 11:47:22;;;;;;;3.08;1.50;;;;;;;;;;10399178;28;20046;-80
2022/07/17 11:52:23;;;;;;;2.42;1.50;;;;;;;;;;10396305;28;20046;-84
2022/07/17 11:57:26;;;;;;;1.90;1.10;;;;;;;;;;10394055;28;20112;-80
2022/07/17 12:02:29;;;;;;;2.28;1.05;;;;;;;;;;10385967;28;20088;-82
2022/07/17 12:07:43;;;;;;;3.67;3.15;;;;;;;;;;10381343;28;20106;-80
2022/07/17 12:13:04;;;;;;;1.80;1.13;;;;;;;;;;10379541;28;20054;-81
2022/07/17 12:18:07;;;;;;;2.10;1.17;;;;;;;;;;10399756;28;20114;-85
2022/07/17 12:28:38;;;;;;;1.20;1.10;;;;;;;;;;10475866;23;20054;-88
2022/07/17 12:34:35;;;;;;;2.88;1.25;;;;;;;;;;10474797;23;20113;-85
2022/07/17 12:39:56;;;;;;;2.28;0.88;;;;;;;;;;10403264;28;20045;-86
2022/07/17 12:44:57;;;;;;;2.20;1.30;;;;;;;;;;10315569;28;20057;-87
2022/07/17 12:50:44;;;;;;;1.80;1.00;;;;;;;;;;10361180;28;20061;-87
2022/07/17 12:56:27;;;;;;;1.92;1.00;;;;;;;;;;10323926;28;20033;-86
2022/07/17 13:01:57;;;;;;;1.13;0.75;;;;;;;;;;10336340;28;20057;-87
2022/07/17 13:07:47;;;;;;;1.83;1.20;;;;;;;;;;10354049;28;20131;-87
2022/07/17 13:12:53;;;;;;;1.52;0.90;;;;;;;;;;10357175;28;20041;-84
2022/07/17 13:17:57;;;;;;;1.85;0.90;;;;;;;;;;10303740;28;20042;-87
2022/07/17 13:22:58;;;;;;;2.95;1.00;;;;;;;;;;10336745;28;20045;-84
2022/07/17 13:28:00;;;;;;;2.40;1.23;;;;;;;;;;10372134;28;20498;-85
2022/07/17 13:33:07;;;;;;;2.25;1.00;;;;;;;;;;10355797;28;20072;-85
2022/07/17 13:38:26;;;;;;;3.83;1.40;;;;;;;;;;10347510;28;20097;-86
2022/07/17 13:43:27;;;;;;;2.20;0.95;;;;;;;;;;10380183;28;20054;-83
2022/07/17 13:48:29;;;;;;;2.75;1.40;;;;;;;;;;10361639;28;20118;-83
2022/07/17 13:53:33;;;;;;;1.53;0.70;;;;;;;;;;10352075;28;20073;-84
2022/07/17 13:58:35;;;;;;;2.22;0.80;;;;;;;;;;10381224;28;20097;-81
2022/07/17 14:03:47;;;;;;;1.15;0.80;;;;;;;;;;10356398;28;20106;-83
2022/07/17 14:08:48;;;;;;;1.53;0.93;;;;;;;;;;10399343;28;20032;-85
2022/07/17 14:13:49;;;;;;;1.88;0.98;;;;;;;;;;10384026;28;20107;-83
2022/07/17 14:18:59;;;;;;;1.40;0.80;;;;;;;;;;10378388;28;20038;-86
2022/07/17 14:24:03;;;;;;;2.03;0.85;;;;;;;;;;10363111;28;20076;-85
2022/07/17 14:29:04;;;;;;;2.13;0.98;;;;;;;;;;10323555;28;20036;-79
2022/07/17 14:34:05;;;;;;;0.97;0.90;;;;;;;;;;10339171;28;20062;-78
2022/07/17 14:39:05;;;;;;;1.03;0.80;;;;;;;;;;10373931;28;20037;-80
2022/07/17 14:44:08;;;;;;;1.87;1.20;;;;;;;;;;10373992;28;20065;-87
2022/07/17 14:49:09;;;;;;;1.20;1.00;;;;;;;;;;10369203;28;20506;-81
2022/07/17 14:54:09;;;;;;;1.00;0.83;;;;;;;;;;10363371;28;20050;-82
2022/07/17 14:59:10;;;;;;;0.87;0.67;;;;;;;;;;10351249;28;20143;-82
2022/07/17 15:04:10;;;;;;;1.63;0.83;;;;;;;;;;10363692;28;20054;-82
2022/07/17 15:09:11;;;;;;;1.73;0.77;;;;;;;;;;10372935;28;20043;-82
2022/07/17 15:14:15;;;;;;;1.00;0.80;;;;;;;;;;10384225;28;20037;-83
2022/07/17 15:19:18;;;;;;;1.75;0.88;;;;;;;;;;10372358;28;20097;-82
2022/07/17 15:24:18;;;;;;;1.23;0.60;;;;;;;;;;10365452;28;20058;-82
2022/07/17 15:29:18;;;;;;;1.27;0.93;;;;;;;;;;10364302;28;20075;-82
2022/07/17 15:34:19;;;;;;;2.10;1.13;;;;;;;;;;10368969;28;20055;-81
2022/07/17 15:39:19;;;;;;;4.83;2.00;;;;;;;;;;10363187;28;20070;-83
2022/07/17 15:44:23;;;;;;;4.22;0.90;;;;;;;;;;10343439;28;20120;-83
2022/07/17 15:49:27;;;;;;;3.03;1.42;;;;;;;;;;10367741;28;20109;-80
2022/07/17 15:54:27;;;;;;;5.15;1.45;;;;;;;;;;10390493;28;20046;-78
2022/07/17 15:59:31;;;;;;;2.20;0.95;;;;;;;;;;10375330;28;20050;-80
2022/07/17 16:04:31;;;;;;;3.57;0.93;;;;;;;;;;10343437;28;20045;-81
2022/07/17 16:09:34;;;;;;;1.83;0.90;;;;;;;;;;10365561;28;20082;-83
2022/07/17 16:14:35;;;;;;;2.15;1.40;;;;;;;;;;10366035;28;20050;-78
2022/07/17 16:19:35;;;;;;;2.13;0.97;;;;;;;;;;10361881;28;20101;-81
2022/07/17 16:24:37;;;;;;;;;;;;;;;;;;10374359;28;20078;-82
2022/07/17 16:29:41;;;;;;;0.82;0.75;;;;;;;;;;10391821;28;20240;-83
2022/07/17 16:34:42;;;;;;;0.77;0.70;;;;;;;;;;10369672;28;20088;-83
2022/07/17 16:39:45;;;;;;;1.40;0.80;;;;;;;;;;10353444;28;20041;-81
2022/07/17 16:44:48;;;;;;;15.07;12.87;;;;;;;;;;10392818;28;20058;-84
2022/07/17 16:49:50;;;;;;;1.73;0.70;;;;;;;;;;10386315;28;20053;-82
2022/07/17 16:54:51;;;;;;;2.07;0.70;;;;;;;;;;10375340;28;20069;-82
2022/07/17 16:59:51;;;;;;;1.00;0.83;;;;;;;;;;10383731;28;20034;-85
2022/07/17 17:04:55;;;;;;;;;;;;;;;;;;10365081;28;20076;-85
2022/07/17 17:09:55;;;;;;;1.15;0.90;;;;;;;;;;10370072;28;20016;-86
2022/07/17 17:14:56;;;;;;;0.73;0.60;;;;;;;;;;10375151;28;20034;-83
2022/07/17 17:19:56;;;;;;;1.00;0.70;;;;;;;;;;10389405;28;20042;-82
2022/07/17 17:24:57;;;;;;;1.00;0.80;;;;;;;;;;10375992;28;20148;-81
2022/07/17 17:29:57;;;;;;;13.90;4.83;;;;;;;;;;10387252;28;20067;-85
2022/07/17 17:35:01;;;;;;;8.05;1.90;;;;;;;;;;10381874;28;20041;-79
2022/07/17 17:40:03;;;;;;;5.03;1.40;;;;;;;;;;10365267;28;20449;-80
2022/07/17 17:45:04;;;;;;;3.10;0.90;;;;;;;;;;10348408;28;20104;-81
2022/07/17 17:50:05;;;;;;;3.75;1.38;;;;;;;;;;10358823;28;20046;-81
2022/07/17 17:55:09;;;;;;;4.20;1.20;;;;;;;;;;10367107;28;20054;-82
2022/07/17 18:00:11;;;;;;;1.88;0.80;;;;;;;;;;10355540;28;20046;-83
2022/07/17 18:05:22;;;;;;;1.60;0.90;;;;;;;;;;10343164;28;20566;-82
2022/07/17 18:10:39;;;;;;;2.97;2.05;;;;;;;;;;10351727;28;20082;-89
2022/07/17 18:15:40;;;;;;;1.15;1.00;;;;;;;;;;10380727;28;20035;-82
2022/07/17 18:20:40;;;;;;;1.92;0.90;;;;;;;;;;10386997;28;20025;-85
2022/07/17 18:25:42;;;;;;;1.45;0.95;;;;;;;;;;10393620;28;20050;-81
2022/07/17 18:30:43;;;;;;;1.83;0.90;;;;;;;;;;10383546;28;20437;-81
2022/07/17 18:35:43;;;;;;;2.05;0.90;;;;;;;;;;10372130;28;20049;-82
2022/07/17 18:40:44;;;;;;;1.90;1.00;;;;;;;;;;10377060;28;20046;-81
2022/07/17 18:45:44;;;;;;;1.77;1.30;;;;;;;;;;10365350;28;20124;-80
2022/07/17 18:50:45;;;;;;;1.83;1.40;;;;;;;;;;10379785;28;20061;-80
2022/07/17 18:55:46;;;;;;;2.97;1.75;;;;;;;;;;10371035;28;20045;-81
2022/07/17 19:01:08;;;;;;;2.20;1.50;;;;;;;;;;10396651;28;20090;-84
2022/07/17 19:06:09;;;;;;;2.85;1.83;;;;;;;;;;10367266;28;20049;-84
2022/07/17 19:11:12;;;;;;;2.97;1.80;;;;;;;;;;10346925;28;20049;-83
2022/07/17 19:16:16;;;;;;;2.10;1.38;;;;;;;;;;10362106;28;20046;-80
2022/07/17 19:21:17;;;;;;;3.80;2.67;;;;;;;;;;10350679;28;20050;-80
2022/07/17 19:26:18;;;;;;;4.87;3.57;;;;;;;;;;10350005;28;20286;-83
2022/07/17 19:31:18;;;;;;;4.00;3.00;;;;;;;;;;10379665;28;20046;-80
2022/07/17 19:36:20;;;;;;;4.00;2.50;;;;;;;;;;10368114;28;20335;-79
2022/07/17 19:41:22;;;;;;;4.28;2.40;;;;;;;;;;10370334;28;20181;-83
2022/07/17 19:46:22;;;;;;;4.15;2.80;;;;;;;;;;10364412;28;20045;-78
2022/07/17 19:51:23;;;;;;;3.13;2.50;;;;;;;;;;10387010;28;20111;-85
2022/07/17 19:56:23;;;;;;;4.53;2.80;;;;;;;;;;10369076;28;20118;-83
2022/07/17 20:01:25;;;;;;;4.63;2.97;;;;;;;;;;10352367;28;20058;-80
2022/07/17 20:06:25;;;;;;;5.70;2.60;;;;;;;;;;10358473;28;20056;-81
2022/07/17 20:11:27;;;;;;;4.63;2.20;;;;;;;;;;10363078;28;20070;-83
2022/07/17 20:16:29;;;;;;;4.30;3.30;;;;;;;;;;10391328;28;20349;-83
2022/07/17 20:21:29;;;;;;;4.73;3.17;;;;;;;;;;10398173;28;20335;-80
2022/07/17 20:26:29;;;;;;;5.65;3.03;;;;;;;;;;10349093;28;20053;-79
2022/07/17 20:31:30;;;;;;;5.95;3.05;;;;;;;;;;10348226;28;20054;-79
2022/07/17 20:36:30;;;;;;;4.93;3.07;;;;;;;;;;10352376;28;20498;-80
2022/07/17 20:41:31;;;;;;;6.20;3.13;;;;;;;;;;10348573;28;20285;-80
2022/07/17 20:46:32;;;;;;;7.50;4.07;;;;;;;;;;10354051;28;20046;-81
2022/07/17 20:51:33;;;;;;;5.10;3.90;;;;;;;;;;10341250;28;20402;-82
2022/07/17 20:56:33;;;;;;;5.05;4.20;;;;;;;;;;10366320;28;20049;-81
2022/07/17 21:01:34;;;;;;;4.63;3.60;;;;;;;;;;10361982;28;20280;-81
2022/07/17 21:06:34;;;;;;;6.63;4.17;;;;;;;;;;10374341;28;20034;-80
2022/07/17 21:11:35;;;;;;;5.68;4.38;;;;;;;;;;10370392;28;20301;-82
2022/07/17 21:16:36;;;;;;;9.88;7.05;;;;;;;;;;10361573;28;20046;-81
2022/07/17 21:21:36;;;;;;;7.50;6.00;;;;;;;;;;10367667;28;20057;-80
2022/07/17 21:26:37;;;;;;;7.35;5.70;;;;;;;;;;10345511;28;20122;-83
2022/07/17 21:31:37;;;;;;;7.95;4.80;;;;;;;;;;10359859;28;20042;-80
2022/07/17 21:36:37;;;;;;;6.10;4.07;;;;;;;;;;10355892;28;20050;-79
2022/07/17 21:41:38;;;;;;;5.55;4.00;;;;;;;;;;10350612;28;20054;-81
2022/07/17 21:46:38;;;;;;;5.30;3.70;;;;;;;;;;10324894;28;20043;-79
2022/07/17 21:51:38;;;;;;;3.20;2.73;;;;;;;;;;10330459;28;20361;-80
2022/07/17 21:56:39;;;;;;;7.57;4.97;;;;;;;;;;10356517;28;20287;-78
2022/07/17 22:01:39;;;;;;;5.30;3.50;;;;;;;;;;10356005;28;20034;-80
2022/07/17 22:06:43;;;;;;;4.05;3.10;;;;;;;;;;10354112;28;20084;-81
2022/07/17 22:11:44;;;;;;;3.97;2.60;;;;;;;;;;10353453;28;20050;-80
2022/07/17 22:16:45;;;;;;;4.00;2.28;;;;;;;;;;10363248;28;20072;-78
2022/07/17 22:21:46;;;;;;;3.42;2.65;;;;;;;;;;10354761;28;20062;-80
2022/07/17 22:26:46;;;;;;;3.95;2.72;;;;;;;;;;10356429;28;20049;-79
2022/07/17 22:31:46;;;;;;;4.75;2.03;;;;;;;;;;10344331;28;20052;-79
2022/07/17 22:36:47;;;;;;;3.42;2.38;;;;;;;;;;10343645;28;20141;-82
2022/07/17 22:41:47;;;;;;;2.97;2.00;;;;;;;;;;10340459;28;20069;-80
2022/07/17 22:46:48;;;;;;;3.58;2.20;;;;;;;;;;10351948;28;20162;-78
2022/07/17 22:51:48;;;;;;;2.60;2.30;;;;;;;;;;10348794;28;20053;-79
2022/07/17 22:56:48;;;;;;;3.37;2.20;;;;;;;;;;10328198;28;20278;-79
2022/07/17 23:01:49;;;;;;;5.70;2.67;;;;;;;;;;10355972;28;20328;-78
2022/07/17 23:06:50;;;;;;;3.58;2.10;;;;;;;;;;10380206;28;20277;-79
2022/07/17 23:11:50;;;;;;;3.08;2.13;;;;;;;;;;10380078;28;20053;-77
2022/07/17 23:16:51;;;;;;;3.60;2.17;;;;;;;;;;10368925;28;20050;-79
2022/07/17 23:21:51;;;;;;;4.63;2.20;;;;;;;;;;10385044;28;20058;-78
2022/07/17 23:26:52;;;;;;;5.50;2.30;;;;;;;;;;10380916;28;20268;-79
2022/07/17 23:31:52;;;;;;;3.28;2.30;;;;;;;;;;10353370;28;20046;-84
2022/07/17 23:36:53;;;;;;;3.35;2.10;;;;;;;;;;10370729;28;20046;-82
2022/07/17 23:41:53;;;;;;;2.60;2.13;;;;;;;;;;10361453;28;20133;-80
2022/07/17 23:46:53;;;;;;;3.20;2.42;;;;;;;;;;10367934;28;20061;-79
2022/07/17 23:51:54;;;;;;;1.88;1.67;;;;;;;;;;10376051;28;20046;-79
2022/07/17 23:56:54;;;;;;;3.23;2.00;;;;;;;;;;10368834;28;20058;-77
